DAL881 KCLT-KBOS
Flight info
| Callsign | DAL881 |
|---|---|
| Flight time | 1h 47m |
| Altitude | 37000 |
| Route | BARMY5 RDU NOWAE Q87 GEARS BBOBO Q22 RBV Q419 JFK ROBUC3 |
| Aircraft | A21N/M-SDE2E3FGHIRWXY/LB1 |
Departure
| Time | 2026-05-04 21:43 |
|---|---|
| Airport | Charlotte Douglas International Airport (KCLT) |
Arrival
| Time | 2026-05-04 23:30 |
|---|---|
| Airport | Boston Logan International Airport (KBOS) |
| Time | Latitude | Longitude | Altitude | Speed | Heading |
|---|---|---|---|---|---|
| 2026-05-04 21:24 | 35.22000 | -80.94015 | 730 ft | 0 kts | 344° |
| 2026-05-04 21:35 | 35.21994 | -80.94013 | 730 ft | 2 kts | 344° |
| 2026-05-04 21:35 | 35.21978 | -80.94008 | 729 ft | 2 kts | 346° |
| 2026-05-04 21:35 | 35.21962 | -80.94003 | 728 ft | 2 kts | 347° |
| 2026-05-04 21:35 | 35.21946 | -80.93999 | 727 ft | 2 kts | 349° |
| 2026-05-04 21:36 | 35.21930 | -80.93995 | 728 ft | 2 kts | 351° |
| 2026-05-04 21:36 | 35.21913 | -80.93993 | 729 ft | 2 kts | 354° |
| 2026-05-04 21:36 | 35.21897 | -80.93991 | 727 ft | 2 kts | 359° |
| 2026-05-04 21:36 | 35.21881 | -80.93992 | 727 ft | 2 kts | 7° |
| 2026-05-04 21:37 | 35.21865 | -80.93997 | 727 ft | 2 kts | 23° |
| 2026-05-04 21:37 | 35.21851 | -80.94008 | 727 ft | 2 kts | 51° |
| 2026-05-04 21:37 | 35.21841 | -80.94023 | 728 ft | 2 kts | 49° |
| 2026-05-04 21:37 | 35.21837 | -80.94028 | 727 ft | 0 kts | 49° |
| 2026-05-04 21:38 | 35.21846 | -80.93996 | 728 ft | 12 kts | 78° |
| 2026-05-04 21:39 | 35.21859 | -80.93877 | 729 ft | 13 kts | 67° |
| 2026-05-04 21:39 | 35.21913 | -80.93791 | 730 ft | 12 kts | 48° |
| 2026-05-04 21:39 | 35.21999 | -80.93715 | 731 ft | 20 kts | 9° |
| 2026-05-04 21:39 | 35.22129 | -80.93722 | 732 ft | 18 kts | 356° |
| 2026-05-04 21:40 | 35.22248 | -80.93731 | 732 ft | 17 kts | 356° |
| 2026-05-04 21:40 | 35.22363 | -80.93741 | 733 ft | 17 kts | 356° |
| 2026-05-04 21:40 | 35.22471 | -80.93748 | 734 ft | 7 kts | 10° |
| 2026-05-04 21:40 | 35.22472 | -80.93748 | 734 ft | 0 kts | 12° |
| 2026-05-04 21:41 | 35.22491 | -80.93734 | 735 ft | 8 kts | 44° |
| 2026-05-04 21:41 | 35.22505 | -80.93660 | 735 ft | 10 kts | 102° |
| 2026-05-04 21:41 | 35.22451 | -80.93612 | 734 ft | 10 kts | 173° |
| 2026-05-04 21:42 | 35.22352 | -80.93602 | 733 ft | 33 kts | 175° |
| 2026-05-04 21:42 | 35.21875 | -80.93563 | 730 ft | 105 kts | 176° |
| 2026-05-04 21:42 | 35.20918 | -80.93492 | 726 ft | 170 kts | 180° |
| 2026-05-04 21:42 | 35.19664 | -80.93379 | 1139 ft | 187 kts | 178° |
| 2026-05-04 21:43 | 35.18360 | -80.93227 | 1957 ft | 182 kts | 176° |
| 2026-05-04 21:43 | 35.17138 | -80.92978 | 2758 ft | 181 kts | 166° |
| 2026-05-04 21:43 | 35.16001 | -80.92139 | 3030 ft | 206 kts | 138° |
| 2026-05-04 21:43 | 35.14988 | -80.90774 | 3351 ft | 228 kts | 133° |
| 2026-05-04 21:44 | 35.13917 | -80.89205 | 3584 ft | 252 kts | 132° |
| 2026-05-04 21:44 | 35.12769 | -80.87500 | 4076 ft | 266 kts | 132° |
| 2026-05-04 21:44 | 35.11595 | -80.85710 | 4740 ft | 273 kts | 127° |
| 2026-05-04 21:44 | 35.10773 | -80.83617 | 5390 ft | 284 kts | 106° |
| 2026-05-04 21:45 | 35.10694 | -80.81198 | 6074 ft | 291 kts | 79° |
| 2026-05-04 21:45 | 35.11209 | -80.78798 | 6852 ft | 293 kts | 71° |
| 2026-05-04 21:45 | 35.11854 | -80.76436 | 7654 ft | 295 kts | 70° |
| 2026-05-04 21:45 | 35.12524 | -80.74058 | 8438 ft | 298 kts | 70° |
| 2026-05-04 21:46 | 35.13199 | -80.71652 | 9226 ft | 302 kts | 70° |
| 2026-05-04 21:46 | 35.13879 | -80.69206 | 10034 ft | 305 kts | 70° |
| 2026-05-04 21:46 | 35.14572 | -80.66706 | 10506 ft | 320 kts | 70° |
| 2026-05-04 21:46 | 35.15308 | -80.64046 | 10771 ft | 341 kts | 69° |
| 2026-05-04 21:47 | 35.16090 | -80.61214 | 11057 ft | 362 kts | 70° |
| 2026-05-04 21:47 | 35.16911 | -80.58232 | 11401 ft | 378 kts | 70° |
| 2026-05-04 21:47 | 35.17747 | -80.55176 | 12115 ft | 381 kts | 70° |
| 2026-05-04 21:47 | 35.18598 | -80.52063 | 12655 ft | 392 kts | 69° |
| 2026-05-04 21:48 | 35.19473 | -80.48863 | 13078 ft | 403 kts | 69° |
| 2026-05-04 21:48 | 35.20343 | -80.45667 | 13930 ft | 400 kts | 69° |
| 2026-05-04 21:48 | 35.21225 | -80.42427 | 14635 ft | 402 kts | 69° |
| 2026-05-04 21:48 | 35.22109 | -80.39183 | 15282 ft | 404 kts | 69° |
| 2026-05-04 21:49 | 35.23000 | -80.35906 | 15903 ft | 408 kts | 69° |
| 2026-05-04 21:49 | 35.23899 | -80.32597 | 16532 ft | 411 kts | 69° |
| 2026-05-04 21:49 | 35.24802 | -80.29271 | 17134 ft | 414 kts | 69° |
| 2026-05-04 21:49 | 35.25712 | -80.25915 | 17738 ft | 417 kts | 69° |
| 2026-05-04 21:50 | 35.26628 | -80.22532 | 18319 ft | 421 kts | 69° |
| 2026-05-04 21:50 | 35.27538 | -80.19166 | 18804 ft | 425 kts | 69° |
| 2026-05-04 21:50 | 35.28471 | -80.15712 | 19235 ft | 429 kts | 69° |
| 2026-05-04 21:50 | 35.29410 | -80.12230 | 19695 ft | 433 kts | 69° |
| 2026-05-04 21:51 | 35.30379 | -80.08721 | 20157 ft | 436 kts | 68° |
| 2026-05-04 21:51 | 35.31399 | -80.05214 | 20594 ft | 440 kts | 67° |
| 2026-05-04 21:51 | 35.32437 | -80.01682 | 21018 ft | 443 kts | 67° |
| 2026-05-04 21:51 | 35.33484 | -79.98112 | 21450 ft | 447 kts | 67° |
| 2026-05-04 21:52 | 35.34537 | -79.94516 | 21919 ft | 450 kts | 67° |
| 2026-05-04 21:52 | 35.35595 | -79.90897 | 22351 ft | 453 kts | 67° |
| 2026-05-04 21:52 | 35.36646 | -79.87292 | 22772 ft | 456 kts | 68° |
| 2026-05-04 21:52 | 35.37715 | -79.83622 | 23201 ft | 460 kts | 68° |
| 2026-05-04 21:53 | 35.38794 | -79.79915 | 23607 ft | 463 kts | 68° |
| 2026-05-04 21:53 | 35.39876 | -79.76191 | 23978 ft | 466 kts | 68° |
| 2026-05-04 21:53 | 35.40965 | -79.72441 | 24322 ft | 469 kts | 68° |
| 2026-05-04 21:53 | 35.42061 | -79.68662 | 24651 ft | 472 kts | 68° |
| 2026-05-04 21:54 | 35.43162 | -79.64861 | 24992 ft | 474 kts | 68° |
| 2026-05-04 21:54 | 35.44267 | -79.61038 | 25321 ft | 477 kts | 68° |
| 2026-05-04 21:54 | 35.45367 | -79.57229 | 25483 ft | 477 kts | 68° |
| 2026-05-04 21:54 | 35.46478 | -79.53379 | 25744 ft | 481 kts | 68° |
| 2026-05-04 21:55 | 35.47579 | -79.49556 | 26046 ft | 483 kts | 68° |
| 2026-05-04 21:55 | 35.48701 | -79.45655 | 26352 ft | 486 kts | 68° |
| 2026-05-04 21:55 | 35.49826 | -79.41738 | 26643 ft | 488 kts | 68° |
| 2026-05-04 21:55 | 35.50957 | -79.37795 | 26932 ft | 491 kts | 68° |
| 2026-05-04 21:56 | 35.52091 | -79.33834 | 27211 ft | 493 kts | 68° |
| 2026-05-04 21:56 | 35.53228 | -79.29860 | 27542 ft | 494 kts | 68° |
| 2026-05-04 21:56 | 35.54365 | -79.25875 | 27940 ft | 494 kts | 68° |
| 2026-05-04 21:56 | 35.55483 | -79.21953 | 28305 ft | 493 kts | 68° |
| 2026-05-04 21:57 | 35.56617 | -79.17972 | 28657 ft | 494 kts | 68° |
| 2026-05-04 21:57 | 35.57781 | -79.14011 | 29016 ft | 492 kts | 64° |
| 2026-05-04 21:57 | 35.59280 | -79.10251 | 29367 ft | 488 kts | 54° |
| 2026-05-04 21:57 | 35.61254 | -79.06906 | 29681 ft | 482 kts | 43° |
| 2026-05-04 21:58 | 35.63617 | -79.04019 | 29977 ft | 478 kts | 37° |
| 2026-05-04 21:58 | 35.66106 | -79.01300 | 30247 ft | 478 kts | 36° |
| 2026-05-04 21:58 | 35.68606 | -78.98614 | 30529 ft | 477 kts | 36° |
| 2026-05-04 21:58 | 35.71072 | -78.95961 | 30810 ft | 477 kts | 36° |
| 2026-05-04 21:59 | 35.73563 | -78.93273 | 31087 ft | 477 kts | 36° |
| 2026-05-04 21:59 | 35.76055 | -78.90576 | 31356 ft | 477 kts | 36° |
| 2026-05-04 21:59 | 35.78540 | -78.87880 | 31603 ft | 477 kts | 36° |
| 2026-05-04 21:59 | 35.81027 | -78.85179 | 31851 ft | 477 kts | 36° |
| 2026-05-04 22:00 | 35.83514 | -78.82473 | 32096 ft | 476 kts | 36° |
| 2026-05-04 22:00 | 35.85996 | -78.79770 | 32308 ft | 476 kts | 36° |
| 2026-05-04 22:00 | 35.88480 | -78.77066 | 32537 ft | 476 kts | 36° |
| 2026-05-04 22:00 | 35.90933 | -78.74403 | 32767 ft | 476 kts | 36° |
| 2026-05-04 22:01 | 35.93421 | -78.71707 | 32980 ft | 476 kts | 36° |
| 2026-05-04 22:01 | 35.95906 | -78.69014 | 33186 ft | 476 kts | 36° |
| 2026-05-04 22:01 | 35.98399 | -78.66314 | 33331 ft | 478 kts | 36° |
| 2026-05-04 22:01 | 36.00897 | -78.63602 | 33486 ft | 478 kts | 36° |
| 2026-05-04 22:02 | 36.03395 | -78.60890 | 33699 ft | 478 kts | 36° |
| 2026-05-04 22:02 | 36.05889 | -78.58181 | 33896 ft | 477 kts | 36° |
| 2026-05-04 22:02 | 36.07540 | -78.56389 | 34002 ft | 477 kts | 36° |
| 2026-05-04 22:02 | 36.10038 | -78.53676 | 34171 ft | 477 kts | 36° |
| 2026-05-04 22:03 | 36.13338 | -78.50090 | 34363 ft | 477 kts | 36° |
| 2026-05-04 22:03 | 36.15832 | -78.47377 | 34513 ft | 477 kts | 36° |
| 2026-05-04 22:03 | 36.18354 | -78.44719 | 34646 ft | 475 kts | 33° |
| 2026-05-04 22:03 | 36.20958 | -78.42201 | 34766 ft | 475 kts | 31° |
| 2026-05-04 22:04 | 36.22695 | -78.40553 | 34814 ft | 476 kts | 31° |
| 2026-05-04 22:04 | 36.25313 | -78.38031 | 34944 ft | 477 kts | 32° |
| 2026-05-04 22:04 | 36.27892 | -78.35468 | 35075 ft | 477 kts | 33° |
| 2026-05-04 22:04 | 36.30457 | -78.32841 | 35228 ft | 477 kts | 34° |
| 2026-05-04 22:05 | 36.33800 | -78.29332 | 35386 ft | 477 kts | 34° |
| 2026-05-04 22:05 | 36.36327 | -78.26644 | 35492 ft | 478 kts | 34° |
| 2026-05-04 22:05 | 36.38828 | -78.23918 | 35571 ft | 480 kts | 36° |
| 2026-05-04 22:05 | 36.41283 | -78.21102 | 35684 ft | 481 kts | 37° |
| 2026-05-04 22:06 | 36.42894 | -78.19209 | 35746 ft | 482 kts | 38° |
| 2026-05-04 22:06 | 36.47736 | -78.13444 | 35923 ft | 483 kts | 38° |
| 2026-05-04 22:07 | 36.53385 | -78.06734 | 36099 ft | 484 kts | 38° |
| 2026-05-04 22:07 | 36.58267 | -78.00966 | 36295 ft | 485 kts | 37° |
| 2026-05-04 22:08 | 36.62337 | -77.96161 | 36461 ft | 486 kts | 38° |
| 2026-05-04 22:08 | 36.67247 | -77.90355 | 36554 ft | 487 kts | 38° |
| 2026-05-04 22:09 | 36.72964 | -77.83580 | 36699 ft | 489 kts | 38° |
| 2026-05-04 22:09 | 36.77089 | -77.78680 | 36768 ft | 489 kts | 38° |
| 2026-05-04 22:10 | 36.81986 | -77.72855 | 36880 ft | 490 kts | 38° |
| 2026-05-04 22:10 | 36.86926 | -77.66974 | 36987 ft | 491 kts | 38° |
| 2026-05-04 22:11 | 36.91863 | -77.61084 | 36984 ft | 489 kts | 38° |
| 2026-05-04 22:11 | 36.96756 | -77.55219 | 36967 ft | 487 kts | 38° |
| 2026-05-04 22:12 | 37.01641 | -77.49376 | 36979 ft | 490 kts | 38° |
| 2026-05-04 22:12 | 37.07399 | -77.42508 | 36980 ft | 488 kts | 35° |
| 2026-05-04 22:13 | 37.11980 | -77.38633 | 36981 ft | 471 kts | 18° |
| 2026-05-04 22:13 | 37.17946 | -77.35629 | 36981 ft | 467 kts | 13° |
| 2026-05-04 22:14 | 37.24044 | -77.32985 | 36984 ft | 467 kts | 12° |
| 2026-05-04 22:14 | 37.30204 | -77.30379 | 36969 ft | 466 kts | 13° |
| 2026-05-04 22:15 | 37.36326 | -77.27748 | 36960 ft | 465 kts | 13° |
| 2026-05-04 22:15 | 37.42366 | -77.25122 | 36954 ft | 464 kts | 13° |
| 2026-05-04 22:16 | 37.48432 | -77.22473 | 36947 ft | 465 kts | 13° |
| 2026-05-04 22:16 | 37.54540 | -77.19800 | 36954 ft | 465 kts | 14° |
| 2026-05-04 22:17 | 37.60639 | -77.17128 | 36956 ft | 464 kts | 14° |
| 2026-05-04 22:17 | 37.66730 | -77.14455 | 36958 ft | 463 kts | 14° |
| 2026-05-04 22:18 | 37.72624 | -77.11013 | 36956 ft | 469 kts | 22° |
| 2026-05-04 22:18 | 37.78342 | -77.07142 | 36959 ft | 470 kts | 24° |
| 2026-05-04 22:19 | 37.84061 | -77.03158 | 36966 ft | 470 kts | 24° |
| 2026-05-04 22:19 | 37.89815 | -76.99142 | 36960 ft | 470 kts | 24° |
| 2026-05-04 22:20 | 37.95492 | -76.95189 | 36969 ft | 469 kts | 24° |
| 2026-05-04 22:20 | 38.01199 | -76.91216 | 36942 ft | 468 kts | 24° |
| 2026-05-04 22:21 | 38.06904 | -76.87240 | 36936 ft | 467 kts | 24° |
| 2026-05-04 22:21 | 38.12600 | -76.83263 | 36935 ft | 468 kts | 24° |
| 2026-05-04 22:22 | 38.18267 | -76.79299 | 36934 ft | 466 kts | 24° |
| 2026-05-04 22:22 | 38.23887 | -76.75224 | 36929 ft | 467 kts | 30° |
| 2026-05-04 22:23 | 38.29033 | -76.70124 | 36933 ft | 469 kts | 35° |
| 2026-05-04 22:23 | 38.34025 | -76.64775 | 36937 ft | 470 kts | 36° |
| 2026-05-04 22:24 | 38.38986 | -76.59362 | 36938 ft | 469 kts | 36° |
| 2026-05-04 22:24 | 38.43920 | -76.53995 | 36940 ft | 468 kts | 36° |
| 2026-05-04 22:25 | 38.48901 | -76.48639 | 36939 ft | 468 kts | 35° |
| 2026-05-04 22:25 | 38.53903 | -76.43273 | 36943 ft | 471 kts | 35° |
| 2026-05-04 22:26 | 38.58923 | -76.37876 | 36945 ft | 471 kts | 35° |
| 2026-05-04 22:26 | 38.63889 | -76.32519 | 36949 ft | 470 kts | 36° |
| 2026-05-04 22:27 | 38.68883 | -76.27120 | 36938 ft | 470 kts | 36° |
| 2026-05-04 22:27 | 38.73872 | -76.21717 | 36935 ft | 470 kts | 36° |
| 2026-05-04 22:28 | 38.78851 | -76.16314 | 36935 ft | 469 kts | 36° |
| 2026-05-04 22:28 | 38.83793 | -76.10942 | 36936 ft | 469 kts | 36° |
| 2026-05-04 22:29 | 38.88771 | -76.05521 | 36932 ft | 469 kts | 36° |
| 2026-05-04 22:29 | 38.93742 | -76.00096 | 36932 ft | 469 kts | 36° |
| 2026-05-04 22:30 | 38.98659 | -75.94576 | 36937 ft | 470 kts | 38° |
| 2026-05-04 22:30 | 39.03419 | -75.88903 | 36926 ft | 470 kts | 39° |
| 2026-05-04 22:31 | 39.08189 | -75.83158 | 36915 ft | 470 kts | 39° |
| 2026-05-04 22:31 | 39.12966 | -75.77423 | 36902 ft | 469 kts | 38° |
| 2026-05-04 22:32 | 39.17751 | -75.71694 | 36913 ft | 469 kts | 39° |
| 2026-05-04 22:32 | 39.22497 | -75.66008 | 36911 ft | 468 kts | 39° |
| 2026-05-04 22:33 | 39.27264 | -75.60283 | 36904 ft | 468 kts | 39° |
| 2026-05-04 22:33 | 39.32031 | -75.54549 | 36908 ft | 468 kts | 39° |
| 2026-05-04 22:34 | 39.36787 | -75.48812 | 36912 ft | 467 kts | 39° |
| 2026-05-04 22:34 | 39.41483 | -75.43137 | 36920 ft | 464 kts | 39° |
| 2026-05-04 22:35 | 39.46203 | -75.37423 | 36919 ft | 465 kts | 39° |
| 2026-05-04 22:35 | 39.50924 | -75.31698 | 36922 ft | 465 kts | 39° |
| 2026-05-04 22:36 | 39.55646 | -75.25960 | 36918 ft | 465 kts | 39° |
| 2026-05-04 22:36 | 39.60315 | -75.20275 | 36922 ft | 463 kts | 39° |
| 2026-05-04 22:37 | 39.65004 | -75.14553 | 36916 ft | 463 kts | 39° |
| 2026-05-04 22:37 | 39.69733 | -75.08894 | 36914 ft | 462 kts | 37° |
| 2026-05-04 22:38 | 39.74579 | -75.03440 | 36912 ft | 461 kts | 36° |
| 2026-05-04 22:38 | 39.79423 | -74.98048 | 36913 ft | 462 kts | 36° |
| 2026-05-04 22:39 | 39.84284 | -74.92589 | 36920 ft | 462 kts | 37° |
| 2026-05-04 22:39 | 39.89144 | -74.87122 | 36912 ft | 460 kts | 33° |
| 2026-05-04 22:40 | 39.94267 | -74.82188 | 36912 ft | 455 kts | 31° |
| 2026-05-04 22:40 | 39.99413 | -74.77424 | 36915 ft | 454 kts | 31° |
| 2026-05-04 22:41 | 40.04336 | -74.72283 | 36915 ft | 461 kts | 40° |
| 2026-05-04 22:41 | 40.08777 | -74.66229 | 36899 ft | 462 kts | 43° |
| 2026-05-04 22:42 | 40.13100 | -74.60003 | 36901 ft | 463 kts | 44° |
| 2026-05-04 22:42 | 40.17398 | -74.53750 | 36899 ft | 462 kts | 44° |
| 2026-05-04 22:43 | 40.21951 | -74.47867 | 36900 ft | 458 kts | 36° |
| 2026-05-04 22:43 | 40.26790 | -74.42552 | 36912 ft | 457 kts | 34° |
| 2026-05-04 22:44 | 40.31720 | -74.37297 | 36912 ft | 457 kts | 34° |
| 2026-05-04 22:44 | 40.36652 | -74.32047 | 36612 ft | 456 kts | 34° |
| 2026-05-04 22:44 | 40.39102 | -74.29428 | 36217 ft | 454 kts | 34° |
| 2026-05-04 22:45 | 40.41534 | -74.26819 | 35804 ft | 449 kts | 34° |
| 2026-05-04 22:45 | 40.46311 | -74.21679 | 34992 ft | 439 kts | 34° |
| 2026-05-04 22:45 | 40.48670 | -74.19137 | 34628 ft | 435 kts | 34° |
| 2026-05-04 22:46 | 40.50985 | -74.16617 | 34236 ft | 433 kts | 36° |
| 2026-05-04 22:46 | 40.53113 | -74.13808 | 33856 ft | 436 kts | 44° |
| 2026-05-04 22:46 | 40.54919 | -74.10578 | 33409 ft | 441 kts | 53° |
| 2026-05-04 22:46 | 40.56305 | -74.06953 | 32983 ft | 448 kts | 64° |
| 2026-05-04 22:47 | 40.57322 | -74.03104 | 32566 ft | 453 kts | 67° |
| 2026-05-04 22:47 | 40.58255 | -73.99141 | 32123 ft | 456 kts | 68° |
| 2026-05-04 22:47 | 40.59177 | -73.95141 | 31719 ft | 457 kts | 68° |
| 2026-05-04 22:47 | 40.60100 | -73.91132 | 31320 ft | 459 kts | 68° |
| 2026-05-04 22:48 | 40.61030 | -73.87107 | 30923 ft | 461 kts | 68° |
| 2026-05-04 22:48 | 40.61963 | -73.83072 | 30522 ft | 462 kts | 68° |
| 2026-05-04 22:48 | 40.63079 | -73.79111 | 30135 ft | 459 kts | 59° |
| 2026-05-04 22:48 | 40.64656 | -73.75502 | 29695 ft | 453 kts | 49° |
| 2026-05-04 22:49 | 40.66634 | -73.72294 | 29237 ft | 451 kts | 43° |
| 2026-05-04 22:49 | 40.68723 | -73.69218 | 28781 ft | 449 kts | 43° |
| 2026-05-04 22:49 | 40.70773 | -73.66237 | 28349 ft | 440 kts | 43° |
| 2026-05-04 22:49 | 40.72807 | -73.63273 | 27915 ft | 432 kts | 42° |
| 2026-05-04 22:50 | 40.74803 | -73.60359 | 27497 ft | 424 kts | 42° |
| 2026-05-04 22:50 | 40.76762 | -73.57491 | 27093 ft | 417 kts | 43° |
| 2026-05-04 22:50 | 40.78668 | -73.54693 | 26919 ft | 403 kts | 42° |
| 2026-05-04 22:50 | 40.80528 | -73.51959 | 26919 ft | 399 kts | 42° |
| 2026-05-04 22:51 | 40.82381 | -73.49239 | 26914 ft | 400 kts | 42° |
| 2026-05-04 22:51 | 40.84243 | -73.46504 | 26905 ft | 401 kts | 42° |
| 2026-05-04 22:51 | 40.86106 | -73.43763 | 26905 ft | 401 kts | 42° |
| 2026-05-04 22:51 | 40.87966 | -73.41021 | 26902 ft | 401 kts | 42° |
| 2026-05-04 22:52 | 40.89828 | -73.38273 | 26906 ft | 401 kts | 42° |
| 2026-05-04 22:52 | 40.91665 | -73.35559 | 26907 ft | 401 kts | 43° |
| 2026-05-04 22:52 | 40.93523 | -73.32811 | 26906 ft | 401 kts | 43° |
| 2026-05-04 22:52 | 40.95384 | -73.30058 | 26910 ft | 401 kts | 43° |
| 2026-05-04 22:53 | 40.97240 | -73.27307 | 26831 ft | 401 kts | 42° |
| 2026-05-04 22:53 | 40.99092 | -73.24559 | 26570 ft | 400 kts | 42° |
| 2026-05-04 22:53 | 41.00944 | -73.21811 | 26319 ft | 399 kts | 42° |
| 2026-05-04 22:53 | 41.02788 | -73.19071 | 26060 ft | 398 kts | 42° |
| 2026-05-04 22:54 | 41.04627 | -73.16336 | 25812 ft | 397 kts | 42° |
| 2026-05-04 22:54 | 41.06434 | -73.13647 | 25564 ft | 396 kts | 43° |
| 2026-05-04 22:54 | 41.08263 | -73.10923 | 25256 ft | 395 kts | 43° |
| 2026-05-04 22:54 | 41.10089 | -73.08201 | 24927 ft | 394 kts | 43° |
| 2026-05-04 22:55 | 41.11907 | -73.05487 | 24583 ft | 393 kts | 43° |
| 2026-05-04 22:55 | 41.13718 | -73.02783 | 24247 ft | 391 kts | 43° |
| 2026-05-04 22:55 | 41.15518 | -73.00090 | 23927 ft | 390 kts | 43° |
| 2026-05-04 22:55 | 41.17316 | -72.97401 | 23600 ft | 389 kts | 43° |
| 2026-05-04 22:56 | 41.19107 | -72.94718 | 23245 ft | 388 kts | 43° |
| 2026-05-04 22:56 | 41.20818 | -72.91953 | 22943 ft | 389 kts | 50° |
| 2026-05-04 22:56 | 41.22211 | -72.88861 | 22893 ft | 392 kts | 57° |
| 2026-05-04 22:56 | 41.23455 | -72.85691 | 22892 ft | 392 kts | 58° |
| 2026-05-04 22:57 | 41.24687 | -72.82462 | 22887 ft | 392 kts | 58° |
| 2026-05-04 22:57 | 41.25918 | -72.79224 | 22882 ft | 392 kts | 58° |
| 2026-05-04 22:57 | 41.27148 | -72.75992 | 23043 ft | 393 kts | 58° |
| 2026-05-04 22:57 | 41.28383 | -72.72752 | 23082 ft | 393 kts | 58° |
| 2026-05-04 22:58 | 41.29617 | -72.69512 | 23087 ft | 393 kts | 58° |
| 2026-05-04 22:58 | 41.30852 | -72.66268 | 23088 ft | 393 kts | 58° |
| 2026-05-04 22:58 | 41.32089 | -72.63016 | 23088 ft | 394 kts | 58° |
| 2026-05-04 22:58 | 41.33323 | -72.59768 | 23098 ft | 394 kts | 58° |
| 2026-05-04 22:59 | 41.34559 | -72.56513 | 23088 ft | 394 kts | 58° |
| 2026-05-04 22:59 | 41.35777 | -72.53310 | 23088 ft | 394 kts | 58° |
| 2026-05-04 22:59 | 41.37019 | -72.50061 | 23088 ft | 393 kts | 58° |
| 2026-05-04 22:59 | 41.38261 | -72.46816 | 23089 ft | 394 kts | 58° |
| 2026-05-04 23:00 | 41.39505 | -72.43567 | 23085 ft | 394 kts | 58° |
| 2026-05-04 23:00 | 41.40746 | -72.40322 | 23089 ft | 394 kts | 58° |
| 2026-05-04 23:00 | 41.41985 | -72.37067 | 23086 ft | 394 kts | 58° |
| 2026-05-04 23:00 | 41.43212 | -72.33806 | 23086 ft | 394 kts | 58° |
| 2026-05-04 23:01 | 41.44431 | -72.30537 | 22850 ft | 393 kts | 59° |
| 2026-05-04 23:01 | 41.45638 | -72.27277 | 22578 ft | 392 kts | 59° |
| 2026-05-04 23:01 | 41.46822 | -72.24066 | 22310 ft | 390 kts | 59° |
| 2026-05-04 23:01 | 41.48014 | -72.20827 | 22031 ft | 388 kts | 59° |
| 2026-05-04 23:02 | 41.49199 | -72.17599 | 21783 ft | 387 kts | 59° |
| 2026-05-04 23:02 | 41.50380 | -72.14378 | 21508 ft | 386 kts | 59° |
| 2026-05-04 23:02 | 41.51555 | -72.11168 | 21250 ft | 385 kts | 59° |
| 2026-05-04 23:02 | 41.52729 | -72.07957 | 20992 ft | 384 kts | 59° |
| 2026-05-04 23:03 | 41.53895 | -72.04767 | 20741 ft | 382 kts | 59° |
| 2026-05-04 23:03 | 41.55055 | -72.01585 | 20408 ft | 379 kts | 60° |
| 2026-05-04 23:03 | 41.56126 | -71.98376 | 19926 ft | 379 kts | 64° |
| 2026-05-04 23:03 | 41.57122 | -71.95100 | 19689 ft | 381 kts | 64° |
| 2026-05-04 23:04 | 41.58102 | -71.91822 | 19445 ft | 379 kts | 65° |
| 2026-05-04 23:04 | 41.59061 | -71.88603 | 19206 ft | 377 kts | 64° |
| 2026-05-04 23:04 | 41.60027 | -71.85352 | 18972 ft | 376 kts | 65° |
| 2026-05-04 23:04 | 41.60986 | -71.82110 | 18731 ft | 375 kts | 65° |
| 2026-05-04 23:05 | 41.61942 | -71.78871 | 18495 ft | 374 kts | 65° |
| 2026-05-04 23:05 | 41.62893 | -71.75645 | 18259 ft | 373 kts | 65° |
| 2026-05-04 23:05 | 41.63842 | -71.72425 | 18114 ft | 372 kts | 65° |
| 2026-05-04 23:05 | 41.64788 | -71.69213 | 17988 ft | 371 kts | 65° |
| 2026-05-04 23:06 | 41.65733 | -71.65998 | 17852 ft | 371 kts | 65° |
| 2026-05-04 23:06 | 41.66673 | -71.62796 | 17646 ft | 368 kts | 65° |
| 2026-05-04 23:06 | 41.67602 | -71.59630 | 17376 ft | 363 kts | 65° |
| 2026-05-04 23:06 | 41.68507 | -71.56537 | 17124 ft | 361 kts | 65° |
| 2026-05-04 23:07 | 41.69419 | -71.53420 | 16864 ft | 359 kts | 65° |
| 2026-05-04 23:07 | 41.70329 | -71.50307 | 16597 ft | 358 kts | 65° |
| 2026-05-04 23:07 | 41.71233 | -71.47209 | 16345 ft | 357 kts | 66° |
| 2026-05-04 23:07 | 41.72139 | -71.44118 | 16090 ft | 356 kts | 66° |
| 2026-05-04 23:08 | 41.73099 | -71.41031 | 15750 ft | 364 kts | 62° |
| 2026-05-04 23:08 | 41.74269 | -71.37984 | 15434 ft | 364 kts | 56° |
| 2026-05-04 23:08 | 41.75579 | -71.35145 | 15174 ft | 353 kts | 54° |
| 2026-05-04 23:08 | 41.76865 | -71.32382 | 14930 ft | 346 kts | 55° |
| 2026-05-04 23:09 | 41.78110 | -71.29632 | 14695 ft | 346 kts | 56° |
| 2026-05-04 23:09 | 41.79321 | -71.26895 | 14325 ft | 346 kts | 57° |
| 2026-05-04 23:09 | 41.80531 | -71.24110 | 13889 ft | 345 kts | 57° |
| 2026-05-04 23:09 | 41.81725 | -71.21337 | 13431 ft | 342 kts | 58° |
| 2026-05-04 23:10 | 41.82903 | -71.18581 | 12996 ft | 338 kts | 58° |
| 2026-05-04 23:10 | 41.84063 | -71.15857 | 12585 ft | 336 kts | 58° |
| 2026-05-04 23:10 | 41.85214 | -71.13151 | 12271 ft | 329 kts | 57° |
| 2026-05-04 23:10 | 41.86341 | -71.10529 | 11994 ft | 321 kts | 58° |
| 2026-05-04 23:11 | 41.87450 | -71.07960 | 11730 ft | 316 kts | 57° |
| 2026-05-04 23:11 | 41.88554 | -71.05406 | 11530 ft | 317 kts | 57° |
| 2026-05-04 23:11 | 41.89641 | -71.02892 | 11328 ft | 315 kts | 57° |
| 2026-05-04 23:11 | 41.90742 | -71.00342 | 11133 ft | 315 kts | 57° |
| 2026-05-04 23:12 | 41.91848 | -70.97778 | 10970 ft | 321 kts | 57° |
| 2026-05-04 23:12 | 41.92953 | -70.95213 | 10809 ft | 315 kts | 57° |
| 2026-05-04 23:12 | 41.94083 | -70.92595 | 10700 ft | 325 kts | 57° |
| 2026-05-04 23:12 | 41.95215 | -70.89965 | 10701 ft | 331 kts | 57° |
| 2026-05-04 23:13 | 41.96358 | -70.87305 | 10683 ft | 325 kts | 57° |
| 2026-05-04 23:13 | 41.97466 | -70.84717 | 10522 ft | 314 kts | 56° |
| 2026-05-04 23:13 | 41.98543 | -70.82200 | 10200 ft | 308 kts | 57° |
| 2026-05-04 23:13 | 41.99591 | -70.79747 | 10019 ft | 297 kts | 56° |
| 2026-05-04 23:14 | 42.00591 | -70.77422 | 9866 ft | 285 kts | 54° |
| 2026-05-04 23:14 | 42.01741 | -70.75308 | 9495 ft | 278 kts | 45° |
| 2026-05-04 23:14 | 42.03008 | -70.73357 | 9079 ft | 276 kts | 44° |
| 2026-05-04 23:14 | 42.04289 | -70.71453 | 8790 ft | 274 kts | 43° |
| 2026-05-04 23:15 | 42.05575 | -70.69546 | 8618 ft | 275 kts | 43° |
| 2026-05-04 23:15 | 42.06849 | -70.67646 | 8490 ft | 272 kts | 43° |
| 2026-05-04 23:15 | 42.08103 | -70.65773 | 8288 ft | 274 kts | 44° |
| 2026-05-04 23:15 | 42.09374 | -70.63872 | 8115 ft | 274 kts | 43° |
| 2026-05-04 23:16 | 42.10769 | -70.62159 | 7951 ft | 268 kts | 28° |
| 2026-05-04 23:16 | 42.12439 | -70.61192 | 7633 ft | 259 kts | 9° |
| 2026-05-04 23:16 | 42.14170 | -70.60651 | 7379 ft | 259 kts | 5° |
| 2026-05-04 23:16 | 42.15933 | -70.60178 | 7127 ft | 258 kts | 5° |
| 2026-05-04 23:17 | 42.17693 | -70.59709 | 6883 ft | 257 kts | 5° |
| 2026-05-04 23:17 | 42.19440 | -70.59235 | 6625 ft | 256 kts | 5° |
| 2026-05-04 23:17 | 42.21185 | -70.58756 | 6377 ft | 256 kts | 5° |
| 2026-05-04 23:17 | 42.22959 | -70.58270 | 6095 ft | 268 kts | 5° |
| 2026-05-04 23:18 | 42.24834 | -70.57758 | 5810 ft | 279 kts | 5° |
| 2026-05-04 23:18 | 42.26711 | -70.57234 | 5563 ft | 279 kts | 6° |
| 2026-05-04 23:18 | 42.28609 | -70.56701 | 5294 ft | 278 kts | 6° |
| 2026-05-04 23:18 | 42.30496 | -70.56206 | 5069 ft | 274 kts | 1° |
| 2026-05-04 23:19 | 42.32357 | -70.56313 | 5029 ft | 263 kts | 338° |
| 2026-05-04 23:19 | 42.33943 | -70.57403 | 5031 ft | 253 kts | 316° |
| 2026-05-04 23:19 | 42.35251 | -70.58972 | 5025 ft | 251 kts | 311° |
| 2026-05-04 23:19 | 42.36502 | -70.60632 | 5026 ft | 253 kts | 310° |
| 2026-05-04 23:20 | 42.37856 | -70.62175 | 5009 ft | 260 kts | 326° |
| 2026-05-04 23:20 | 42.39587 | -70.62967 | 5013 ft | 261 kts | 342° |
| 2026-05-04 23:20 | 42.41290 | -70.63354 | 5028 ft | 241 kts | 345° |
| 2026-05-04 23:20 | 42.42893 | -70.63642 | 5017 ft | 228 kts | 346° |
| 2026-05-04 23:21 | 42.44462 | -70.63913 | 5000 ft | 228 kts | 345° |
| 2026-05-04 23:21 | 42.46033 | -70.64179 | 4997 ft | 228 kts | 345° |
| 2026-05-04 23:21 | 42.47611 | -70.64446 | 4999 ft | 228 kts | 346° |
| 2026-05-04 23:21 | 42.49185 | -70.64716 | 4994 ft | 228 kts | 345° |
| 2026-05-04 23:22 | 42.50739 | -70.65084 | 4987 ft | 222 kts | 331° |
| 2026-05-04 23:22 | 42.51900 | -70.66266 | 4991 ft | 204 kts | 298° |
| 2026-05-04 23:22 | 42.52404 | -70.68018 | 4996 ft | 199 kts | 279° |
| 2026-05-04 23:22 | 42.52645 | -70.69845 | 4991 ft | 200 kts | 276° |
| 2026-05-04 23:23 | 42.52855 | -70.71710 | 4788 ft | 200 kts | 275° |
| 2026-05-04 23:23 | 42.53063 | -70.73579 | 4511 ft | 200 kts | 275° |
| 2026-05-04 23:23 | 42.53274 | -70.75440 | 4224 ft | 200 kts | 275° |
| 2026-05-04 23:23 | 42.53491 | -70.77308 | 3946 ft | 201 kts | 275° |
| 2026-05-04 23:24 | 42.53714 | -70.79183 | 3668 ft | 201 kts | 276° |
| 2026-05-04 23:24 | 42.53933 | -70.81045 | 3393 ft | 198 kts | 275° |
| 2026-05-04 23:24 | 42.54161 | -70.82839 | 3146 ft | 188 kts | 275° |
| 2026-05-04 23:24 | 42.54390 | -70.84510 | 3001 ft | 172 kts | 275° |
| 2026-05-04 23:25 | 42.54558 | -70.86078 | 2986 ft | 165 kts | 262° |
| 2026-05-04 23:25 | 42.54193 | -70.87489 | 2992 ft | 161 kts | 240° |
| 2026-05-04 23:25 | 42.53580 | -70.88768 | 2985 ft | 164 kts | 236° |
| 2026-05-04 23:25 | 42.52922 | -70.90047 | 2987 ft | 166 kts | 235° |
| 2026-05-04 23:26 | 42.52267 | -70.91341 | 2993 ft | 167 kts | 236° |
| 2026-05-04 23:26 | 42.51594 | -70.92613 | 2956 ft | 166 kts | 229° |
| 2026-05-04 23:26 | 42.50661 | -70.93540 | 2764 ft | 169 kts | 211° |
| 2026-05-04 23:26 | 42.49574 | -70.94161 | 2533 ft | 169 kts | 204° |
| 2026-05-04 23:27 | 42.48469 | -70.94689 | 2305 ft | 167 kts | 204° |
| 2026-05-04 23:27 | 42.47374 | -70.95219 | 2072 ft | 168 kts | 204° |
| 2026-05-04 23:27 | 42.46278 | -70.95755 | 1856 ft | 167 kts | 204° |
| 2026-05-04 23:27 | 42.45199 | -70.96279 | 1655 ft | 160 kts | 203° |
| 2026-05-04 23:28 | 42.44200 | -70.96755 | 1447 ft | 147 kts | 202° |
| 2026-05-04 23:28 | 42.43252 | -70.97180 | 1343 ft | 143 kts | 202° |
| 2026-05-04 23:28 | 42.42317 | -70.97629 | 1135 ft | 147 kts | 206° |
| 2026-05-04 23:28 | 42.41375 | -70.98101 | 910 ft | 140 kts | 204° |
| 2026-05-04 23:29 | 42.40484 | -70.98570 | 688 ft | 136 kts | 202° |
| 2026-05-04 23:29 | 42.39591 | -70.98998 | 519 ft | 139 kts | 200° |
| 2026-05-04 23:29 | 42.38682 | -70.99436 | 327 ft | 136 kts | 200° |
| 2026-05-04 23:29 | 42.37814 | -70.99869 | 149 ft | 132 kts | 199° |
| 2026-05-04 23:30 | 42.36958 | -71.00281 | 39 ft | 126 kts | 199° |
| 2026-05-04 23:30 | 42.36274 | -71.00610 | 31 ft | 73 kts | 200° |
| 2026-05-04 23:30 | 42.35981 | -71.00806 | 27 ft | 29 kts | 230° |
| 2026-05-04 23:30 | 42.35865 | -71.00995 | 27 ft | 9 kts | 234° |
| 2026-05-04 23:31 | 42.35854 | -71.01018 | 28 ft | 2 kts | 238° |
| 2026-05-04 23:31 | 42.35834 | -71.01105 | 30 ft | 12 kts | 266° |
| 2026-05-04 23:31 | 42.35843 | -71.01228 | 28 ft | 15 kts | 277° |
| 2026-05-04 23:31 | 42.35846 | -71.01266 | 29 ft | 0 kts | 277° |
| 2026-05-04 23:33 | 42.35855 | -71.01353 | 31 ft | 21 kts | 278° |
| 2026-05-04 23:34 | 42.35882 | -71.01553 | 33 ft | 24 kts | 279° |
| 2026-05-04 23:34 | 42.35913 | -71.01771 | 33 ft | 24 kts | 285° |
| 2026-05-04 23:34 | 42.35943 | -71.01878 | 30 ft | 0 kts | 272° |
| 2026-05-04 23:34 | 42.35961 | -71.01924 | 29 ft | 8 kts | 301° |
| 2026-05-04 23:35 | 42.35996 | -71.02003 | 29 ft | 10 kts | 301° |
| 2026-05-04 23:35 | 42.36035 | -71.02090 | 29 ft | 2 kts | 301° |
| 2026-05-04 23:35 | 42.36039 | -71.02099 | 29 ft | 1 kts | 301° |
| 2026-05-04 23:35 | 42.36044 | -71.02117 | 29 ft | 7 kts | 279° |
| 2026-05-04 23:36 | 42.36026 | -71.02204 | 28 ft | 13 kts | 261° |
| 2026-05-04 23:36 | 42.36072 | -71.02308 | 28 ft | 15 kts | 333° |
| 2026-05-04 23:36 | 42.36197 | -71.02284 | 27 ft | 23 kts | 25° |
| 2026-05-04 23:36 | 42.36302 | -71.02211 | 27 ft | 1 kts | 28° |
| 2026-05-04 23:37 | 42.36330 | -71.02190 | 27 ft | 8 kts | 33° |
| 2026-05-04 23:37 | 42.36350 | -71.02170 | 28 ft | 0 kts | 39° |